Time;durP1;ratioP1;P1;durP2;ratioP2;P2;SDS_P1;SDS_P2;PMS_P1;PMS_P2;Temp;Humidity;BMP_temperature;BMP_pressure;BME280_temperature;BME280_humidity;BME280_pressure;Samples;Min_cycle;Max_cycle;Signal;HPM_P1;HPM_P2
2023/10/23 00:00:45;;;;;;;2.80;1.00;;;;;;;9.51;100.00;98206.53;6107820;19;20031;-72
2023/10/23 00:02:45;;;;;;;3.45;1.30;;;;;;;9.50;100.00;98215.19;6109772;19;20020;-73
2023/10/23 00:04:45;;;;;;;2.13;1.38;;;;;;;9.45;100.00;98218.31;6109550;19;20002;-73
2023/10/23 00:06:46;;;;;;;1.50;1.10;;;;;;;9.38;100.00;98210.72;6110510;19;20012;-73
2023/10/23 00:08:46;;;;;;;1.40;1.20;;;;;;;9.35;100.00;98214.25;6109956;19;20007;-73
2023/10/23 00:10:46;;;;;;;1.58;1.23;;;;;;;9.27;100.00;98215.34;6110268;19;20003;-73
2023/10/23 00:12:47;;;;;;;5.70;1.48;;;;;;;9.23;100.00;98215.28;6109505;19;20010;-73
2023/10/23 00:14:48;;;;;;;1.88;1.10;;;;;;;9.17;100.00;98214.00;6107765;19;20006;-73
2023/10/23 00:16:48;;;;;;;2.38;1.25;;;;;;;9.11;100.00;98220.25;6110944;19;20011;-73
2023/10/23 00:18:49;;;;;;;2.65;1.20;;;;;;;9.07;100.00;98222.97;6107042;19;20023;-73
2023/10/23 00:20:49;;;;;;;1.10;0.98;;;;;;;8.98;100.00;98220.47;6108777;19;20002;-73
2023/10/23 00:22:49;;;;;;;7.13;1.52;;;;;;;8.98;100.00;98225.19;6109018;19;20011;-72
2023/10/23 00:24:50;;;;;;;2.35;1.13;;;;;;;8.91;100.00;98225.91;6109638;19;20011;-73
2023/10/23 00:26:50;;;;;;;2.10;1.30;;;;;;;8.90;100.00;98221.56;6109695;19;21051;-73
2023/10/23 00:28:50;;;;;;;2.42;1.25;;;;;;;8.88;100.00;98225.84;6110088;19;20011;-73
2023/10/23 00:30:51;;;;;;;1.33;1.02;;;;;;;8.87;100.00;98230.59;6109164;19;20234;-73
2023/10/23 00:32:51;;;;;;;5.85;1.45;;;;;;;8.82;100.00;98224.59;6107926;19;20011;-73
2023/10/23 00:34:51;;;;;;;1.17;1.08;;;;;;;8.79;100.00;98242.69;6110012;19;20020;-72
2023/10/23 00:36:52;;;;;;;2.50;1.10;;;;;;;8.81;100.00;98240.34;6110027;19;20026;-72
2023/10/23 00:38:52;;;;;;;1.45;0.90;;;;;;;8.78;100.00;98238.34;6107500;19;20048;-72
2023/10/23 00:40:52;;;;;;;2.45;0.95;;;;;;;8.77;100.00;98238.69;6108128;19;20009;-73
2023/10/23 00:42:53;;;;;;;1.88;1.10;;;;;;;8.72;100.00;98237.84;6108656;19;20023;-73
2023/10/23 00:44:53;;;;;;;1.52;1.00;;;;;;;8.64;100.00;98236.16;6109440;19;20007;-72
2023/10/23 00:46:54;;;;;;;2.28;1.05;;;;;;;8.54;100.00;98241.50;6109134;19;20465;-72
2023/10/23 00:48:55;;;;;;;1.33;1.00;;;;;;;8.54;100.00;98247.03;6109675;19;20363;-72
2023/10/23 00:50:59;;;;;;;1.25;0.95;;;;;;;8.52;100.00;98243.81;6108107;19;20392;-73
2023/10/23 00:52:59;;;;;;;2.33;1.17;;;;;;;8.52;100.00;98252.09;6107925;19;20024;-73
2023/10/23 00:55:00;;;;;;;3.38;1.10;;;;;;;8.44;100.00;98248.44;6108569;19;20006;-72
2023/10/23 00:57:02;;;;;;;2.63;1.17;;;;;;;8.36;100.00;98255.81;6109102;19;20007;-72
2023/10/23 00:59:03;;;;;;;3.83;2.08;;;;;;;8.24;100.00;98260.66;6108853;19;20017;-73
2023/10/23 01:01:04;;;;;;;2.25;1.13;;;;;;;8.10;100.00;98256.50;6106521;19;20463;-72
2023/10/23 01:03:05;;;;;;;1.55;1.08;;;;;;;8.03;100.00;98256.38;6107067;19;20021;-73
2023/10/23 01:05:06;;;;;;;4.90;1.30;;;;;;;7.96;100.00;98259.00;6109604;19;20009;-73
2023/10/23 01:07:06;;;;;;;1.88;1.10;;;;;;;7.96;100.00;98269.25;6108876;19;20062;-72
2023/10/23 01:09:07;;;;;;;1.50;1.10;;;;;;;7.93;100.00;98259.72;6107976;19;20007;-72
2023/10/23 01:11:08;;;;;;;3.67;1.45;;;;;;;7.94;100.00;98260.53;6107553;19;20010;-72
2023/10/23 01:13:09;;;;;;;2.92;1.42;;;;;;;7.91;100.00;98266.78;6107849;19;20356;-72
2023/10/23 01:15:09;;;;;;;1.67;1.10;;;;;;;7.84;100.00;98262.72;6106801;19;20007;-72
2023/10/23 01:17:09;;;;;;;3.70;1.20;;;;;;;7.83;100.00;98261.13;6107603;19;20011;-73
2023/10/23 01:19:10;;;;;;;1.02;0.90;;;;;;;7.84;100.00;98262.72;6108688;19;21710;-72
2023/10/23 01:21:10;;;;;;;1.40;1.00;;;;;;;7.78;100.00;98255.13;6107680;19;20010;-72
2023/10/23 01:23:11;;;;;;;2.08;1.20;;;;;;;7.76;100.00;98262.94;6107309;19;20007;-72
2023/10/23 01:25:16;;;;;;;2.92;1.20;;;;;;;7.73;100.00;98260.94;6108395;19;20010;-72
2023/10/23 01:27:16;;;;;;;2.28;1.50;;;;;;;7.73;100.00;98269.19;6108571;19;20003;-72
2023/10/23 01:29:16;;;;;;;2.03;1.23;;;;;;;7.63;100.00;98267.84;6107566;19;20090;-73
2023/10/23 01:31:17;;;;;;;1.98;1.13;;;;;;;7.59;100.00;98264.19;6106711;19;20003;-72
2023/10/23 01:33:17;;;;;;;2.53;1.20;;;;;;;7.52;100.00;98258.53;6106084;19;20010;-73
2023/10/23 01:35:17;;;;;;;1.63;1.30;;;;;;;7.59;100.00;98261.44;6108012;19;20011;-73
2023/10/23 01:37:18;;;;;;;1.95;1.33;;;;;;;7.67;100.00;98267.88;6107113;19;20002;-72
2023/10/23 01:39:18;;;;;;;4.40;1.20;;;;;;;7.66;100.00;98266.31;6108074;19;20341;-72
2023/10/23 01:41:18;;;;;;;1.52;1.10;;;;;;;7.73;100.00;98266.44;6106260;19;20589;-72
2023/10/23 01:43:19;;;;;;;3.38;1.38;;;;;;;7.74;100.00;98268.81;6106817;19;20027;-72
2023/10/23 01:45:19;;;;;;;2.13;1.00;;;;;;;7.71;100.00;98268.78;6107007;19;20009;-72
2023/10/23 01:47:19;;;;;;;3.90;1.27;;;;;;;7.69;100.00;98268.31;6107864;19;20002;-72
2023/10/23 01:49:20;;;;;;;2.35;1.52;;;;;;;7.65;100.00;98271.00;6096307;19;20006;-73
2023/10/23 01:51:20;;;;;;;5.13;1.60;;;;;;;7.65;100.00;98267.47;6111903;19;20037;-73
2023/10/23 01:53:21;;;;;;;3.08;1.50;;;;;;;7.55;100.00;98268.84;6110909;19;20010;-73
2023/10/23 01:55:21;;;;;;;2.78;1.30;;;;;;;7.54;100.00;98272.75;6113009;19;19999;-73
2023/10/23 01:57:22;;;;;;;2.75;1.48;;;;;;;7.47;100.00;98267.91;6112914;19;20338;-73
2023/10/23 01:59:22;;;;;;;3.03;1.25;;;;;;;7.41;100.00;98276.81;6112627;19;20010;-73
2023/10/23 02:01:23;;;;;;;3.95;1.40;;;;;;;7.41;100.00;98268.56;6111951;19;20368;-73
2023/10/23 02:03:23;;;;;;;4.50;1.33;;;;;;;7.36;100.00;98266.06;6109223;19;20003;-72
2023/10/23 02:05:24;;;;;;;2.95;1.35;;;;;;;7.41;100.00;98271.31;6112427;19;20013;-72
2023/10/23 02:07:24;;;;;;;1.77;1.20;;;;;;;7.47;100.00;98270.66;6112490;19;20016;-72
2023/10/23 02:09:24;;;;;;;2.85;1.48;;;;;;;7.47;100.00;98265.16;6113363;19;20311;-73
2023/10/23 02:11:25;;;;;;;2.13;1.30;;;;;;;7.48;100.00;98266.75;6111905;19;20401;-72
2023/10/23 02:13:25;;;;;;;2.80;1.25;;;;;;;7.49;100.00;98270.28;6111589;19;20007;-72
2023/10/23 02:15:25;;;;;;;2.50;1.70;;;;;;;7.52;100.00;98275.06;6110390;19;20074;-73
2023/10/23 02:17:26;;;;;;;2.42;1.73;;;;;;;7.52;100.00;98270.34;6111898;19;20007;-73
2023/10/23 02:19:26;;;;;;;5.20;1.83;;;;;;;7.47;100.00;98278.13;6113286;19;20012;-73
2023/10/23 02:21:27;;;;;;;5.45;1.90;;;;;;;7.42;100.00;98272.91;6110660;19;20007;-72
2023/10/23 02:23:27;;;;;;;3.63;1.60;;;;;;;7.39;100.00;98273.63;6110844;19;20030;-73
2023/10/23 02:25:27;;;;;;;2.38;1.70;;;;;;;7.37;100.00;98282.25;6112916;19;20220;-73
2023/10/23 02:27:28;;;;;;;4.93;2.03;;;;;;;7.40;100.00;98277.97;6111679;19;20003;-72
2023/10/23 02:29:29;;;;;;;2.90;1.70;;;;;;;7.44;100.00;98284.34;6111392;19;20023;-73
2023/10/23 02:31:29;;;;;;;2.60;1.65;;;;;;;7.42;100.00;98290.22;6112084;19;20002;-73
2023/10/23 02:33:29;;;;;;;4.03;1.75;;;;;;;7.44;100.00;98281.59;6110749;19;20006;-73
2023/10/23 02:35:34;;;;;;;4.10;1.75;;;;;;;7.45;100.00;98280.44;6111094;19;20006;-73
2023/10/23 02:37:34;;;;;;;4.95;1.80;;;;;;;7.46;100.00;98282.84;6112435;19;20017;-73
2023/10/23 02:39:34;;;;;;;4.35;1.80;;;;;;;7.52;100.00;98286.06;6109498;19;20343;-73
2023/10/23 02:41:35;;;;;;;2.38;1.70;;;;;;;7.56;100.00;98290.50;6110823;19;20682;-73
2023/10/23 02:43:35;;;;;;;2.05;1.50;;;;;;;7.54;100.00;98281.03;6111147;19;20335;-72
2023/10/23 02:45:36;;;;;;;2.17;1.60;;;;;;;7.56;100.00;98286.97;6111608;19;20110;-73
2023/10/23 02:47:37;;;;;;;3.15;1.70;;;;;;;7.53;100.00;98282.16;6110997;19;20010;-73
2023/10/23 02:49:38;;;;;;;2.88;1.55;;;;;;;7.54;100.00;98289.28;6104086;19;20015;-73
2023/10/23 02:51:38;;;;;;;6.05;1.95;;;;;;;7.53;100.00;98287.66;6103180;19;20570;-73
2023/10/23 02:53:39;;;;;;;1.77;1.35;;;;;;;7.52;100.00;98295.13;6102788;19;20006;-73
2023/10/23 02:55:40;;;;;;;2.67;1.33;;;;;;;7.51;100.00;98288.03;6103247;19;20380;-73
2023/10/23 02:57:40;;;;;;;4.53;2.10;;;;;;;7.50;100.00;98288.41;6102715;19;19999;-73
2023/10/23 02:59:46;;;;;;;1.95;1.52;;;;;;;7.52;100.00;98294.34;6103246;19;20007;-73
2023/10/23 03:01:46;;;;;;;2.33;1.77;;;;;;;7.51;100.00;98304.56;6100171;19;20349;-73
2023/10/23 03:03:48;;;;;;;3.97;1.23;;;;;;;7.54;100.00;98303.06;6102438;19;20283;-73
2023/10/23 03:05:48;;;;;;;1.92;1.58;;;;;;;7.56;100.00;98303.47;6101153;19;20018;-73
2023/10/23 03:07:48;;;;;;;2.40;1.85;;;;;;;7.60;100.00;98307.09;6101342;19;20014;-73
2023/10/23 03:09:49;;;;;;;4.80;1.50;;;;;;;7.59;100.00;98295.28;6103051;19;20020;-73
2023/10/23 03:11:49;;;;;;;2.33;1.50;;;;;;;7.66;100.00;98300.13;6102145;19;20007;-73
2023/10/23 03:13:50;;;;;;;5.72;2.00;;;;;;;7.67;100.00;98300.94;6100376;19;20082;-73
2023/10/23 03:15:50;;;;;;;2.15;1.63;;;;;;;7.69;100.00;98301.34;6101181;19;20330;-73
2023/10/23 03:17:51;;;;;;;3.67;1.80;;;;;;;7.69;100.00;98307.66;6102984;19;20007;-73
2023/10/23 03:19:51;;;;;;;2.80;1.40;;;;;;;7.73;100.00;98308.53;6102150;19;20002;-73
2023/10/23 03:21:52;;;;;;;4.80;1.90;;;;;;;7.76;100.00;98320.78;6101527;19;20031;-73
2023/10/23 03:23:52;;;;;;;9.43;3.42;;;;;;;7.76;100.00;98313.31;6100215;19;20086;-73
2023/10/23 03:25:52;;;;;;;4.07;1.80;;;;;;;7.77;100.00;98317.66;6101687;19;20094;-73
2023/10/23 03:27:53;;;;;;;3.28;1.77;;;;;;;7.81;100.00;98321.28;6100907;19;20720;-73
2023/10/23 03:29:53;;;;;;;2.50;1.83;;;;;;;7.84;100.00;98323.31;6101476;19;20007;-72
2023/10/23 03:31:53;;;;;;;1.88;1.50;;;;;;;7.87;100.00;98321.81;6101138;19;20034;-73
2023/10/23 03:33:54;;;;;;;2.15;1.70;;;;;;;7.87;100.00;98322.59;6100197;19;20018;-73
2023/10/23 03:35:54;;;;;;;2.00;1.67;;;;;;;7.88;100.00;98318.69;6101594;19;20062;-72
2023/10/23 03:37:54;;;;;;;2.55;1.60;;;;;;;7.93;100.00;98323.09;6101637;19;20011;-72
2023/10/23 03:39:55;;;;;;;3.65;1.70;;;;;;;7.91;100.00;98324.63;6101376;19;20004;-73
2023/10/23 03:41:55;;;;;;;2.22;1.83;;;;;;;7.85;100.00;98322.16;6101600;19;20277;-73
2023/10/23 03:43:55;;;;;;;2.60;1.63;;;;;;;7.83;100.00;98326.44;6100277;19;20119;-73
2023/10/23 03:45:56;;;;;;;2.53;1.90;;;;;;;7.78;100.00;98327.53;6101159;19;20017;-73
2023/10/23 03:47:56;;;;;;;3.28;1.77;;;;;;;7.73;100.00;98327.03;6100506;19;20454;-73
2023/10/23 03:49:56;;;;;;;4.15;2.10;;;;;;;7.74;100.00;98332.16;6109825;19;20018;-72
2023/10/23 03:51:57;;;;;;;7.43;1.75;;;;;;;7.77;100.00;98330.63;6107183;19;20002;-73
2023/10/23 03:53:57;;;;;;;3.90;1.75;;;;;;;7.77;100.00;98331.44;6106488;19;20408;-73
2023/10/23 03:55:57;;;;;;;2.45;1.95;;;;;;;7.77;100.00;98325.91;6108525;19;20083;-73
2023/10/23 03:57:58;;;;;;;3.92;1.42;;;;;;;7.77;100.00;98325.91;6108147;19;20002;-73
2023/10/23 03:59:58;;;;;;;1.98;1.45;;;;;;;7.76;100.00;98334.56;6109672;19;20490;-73
2023/10/23 04:01:59;;;;;;;5.97;1.60;;;;;;;7.69;100.00;98323.38;6108665;19;20031;-73
2023/10/23 04:03:59;;;;;;;2.25;1.50;;;;;;;7.71;100.00;98324.63;6107952;19;20020;-73
2023/10/23 04:06:04;;;;;;;2.45;1.50;;;;;;;7.71;100.00;98319.13;6108129;19;20115;-72
2023/10/23 04:08:05;;;;;;;3.13;1.52;;;;;;;7.70;100.00;98325.81;6108524;19;20042;-73
2023/10/23 04:10:07;;;;;;;1.90;1.48;;;;;;;7.67;100.00;98320.22;6108927;19;19998;-72
2023/10/23 04:12:07;;;;;;;2.72;1.70;;;;;;;7.65;100.00;98315.06;6108629;19;20790;-72
2023/10/23 04:14:08;;;;;;;1.70;1.25;;;;;;;7.63;100.00;98320.16;6107655;19;20040;-73
2023/10/23 04:16:09;;;;;;;3.55;1.55;;;;;;;7.63;100.00;98322.91;6105408;19;20379;-73
2023/10/23 04:18:09;;;;;;;2.78;1.52;;;;;;;7.63;100.00;98325.66;6106053;19;20027;-72
2023/10/23 04:20:10;;;;;;;5.10;1.52;;;;;;;7.65;100.00;98323.31;6107664;19;19998;-72
2023/10/23 04:22:10;;;;;;;1.95;1.55;;;;;;;7.58;100.00;98323.97;6105888;19;20036;-73
2023/10/23 04:24:11;;;;;;;4.18;1.50;;;;;;;7.55;100.00;98321.97;6108522;19;20010;-73
2023/10/23 04:26:11;;;;;;;2.35;1.90;;;;;;;7.54;100.00;98328.63;6105791;19;20046;-73
2023/10/23 04:28:12;;;;;;;3.08;1.85;;;;;;;7.49;100.00;98325.34;6108527;19;20368;-73
2023/10/23 04:30:12;;;;;;;2.80;2.35;;;;;;;7.50;100.00;98330.50;6109944;19;20013;-73
2023/10/23 04:32:13;;;;;;;3.03;1.73;;;;;;;7.48;100.00;98332.03;6107762;19;20062;-73
2023/10/23 04:34:14;;;;;;;4.32;2.30;;;;;;;7.47;100.00;98320.22;6107288;19;20522;-73
2023/10/23 04:36:14;;;;;;;3.78;2.42;;;;;;;7.48;100.00;98323.75;6109353;19;20348;-73
2023/10/23 04:38:15;;;;;;;4.55;2.03;;;;;;;7.48;100.00;98334.78;6108420;19;20006;-73
2023/10/23 04:40:15;;;;;;;2.63;1.80;;;;;;;7.48;100.00;98330.06;6105374;19;20620;-73
2023/10/23 04:42:16;;;;;;;3.72;1.90;;;;;;;7.48;100.00;98334.78;6105066;19;20002;-73
2023/10/23 04:44:16;;;;;;;2.90;1.70;;;;;;;7.45;100.00;98335.50;6107024;19;20312;-72
2023/10/23 04:46:17;;;;;;;3.80;2.20;;;;;;;7.46;100.00;98335.13;6108074;19;20014;-73
2023/10/23 04:48:17;;;;;;;2.45;1.85;;;;;;;7.47;100.00;98338.69;6108341;19;20503;-73
2023/10/23 04:50:18;;;;;;;9.70;2.08;;;;;;;7.52;100.00;98330.13;6104693;19;20403;-73
2023/10/23 04:52:18;;;;;;;3.70;2.03;;;;;;;7.56;100.00;98336.50;6102684;19;20274;-72
2023/10/23 04:54:18;;;;;;;5.63;1.90;;;;;;;7.55;100.00;98323.91;6103607;19;20088;-73
2023/10/23 04:56:19;;;;;;;4.90;2.15;;;;;;;7.54;100.00;98328.63;6105226;19;20024;-72
2023/10/23 04:58:19;;;;;;;4.40;2.13;;;;;;;7.53;100.00;98328.97;6107021;19;20018;-73
2023/10/23 05:00:19;;;;;;;2.63;1.90;;;;;;;7.49;100.00;98328.09;6107245;19;20038;-73
2023/10/23 05:02:20;;;;;;;3.85;2.17;;;;;;;7.47;100.00;98328.47;6101706;19;20010;-73
2023/10/23 05:04:20;;;;;;;4.22;2.50;;;;;;;7.46;100.00;98331.59;6104178;19;20085;-72
2023/10/23 05:06:27;;;;;;;7.82;2.70;;;;;;;7.43;100.00;98330.34;6102154;19;20060;-73
2023/10/23 05:08:27;;;;;;;2.90;1.77;;;;;;;7.42;100.00;98333.44;6106952;19;20010;-72
2023/10/23 05:10:28;;;;;;;2.97;2.22;;;;;;;7.38;100.00;98329.84;6108276;19;20474;-73
2023/10/23 05:12:28;;;;;;;7.72;2.10;;;;;;;7.32;100.00;98327.34;6107841;19;20014;-73
2023/10/23 05:14:28;;;;;;;2.25;1.60;;;;;;;7.26;100.00;98328.78;6103297;19;20010;-73
2023/10/23 05:16:29;;;;;;;3.20;2.10;;;;;;;7.24;100.00;98328.34;6107421;19;20007;-73
2023/10/23 05:18:29;;;;;;;3.67;1.90;;;;;;;7.23;100.00;98320.47;6106105;19;20014;-73
2023/10/23 05:20:33;;;;;;;2.97;1.95;;;;;;;7.21;100.00;98323.59;6104460;19;20039;-73
2023/10/23 05:22:34;;;;;;;2.05;1.83;;;;;;;7.14;100.00;98320.66;6107227;19;19998;-72
2023/10/23 05:24:34;;;;;;;3.00;2.00;;;;;;;7.11;100.00;98326.06;6101627;19;20309;-72
2023/10/23 05:26:34;;;;;;;3.70;2.00;;;;;;;7.04;100.00;98324.00;6102432;19;20582;-73
2023/10/23 05:28:34;;;;;;;6.32;2.35;;;;;;;7.01;100.00;98330.97;6105839;19;20030;-73
2023/10/23 05:30:35;;;;;;;2.80;2.13;;;;;;;7.00;100.00;98331.34;6105208;19;19998;-73
2023/10/23 05:32:35;;;;;;;9.23;2.65;;;;;;;6.97;100.00;98332.06;6106707;19;20067;-73
2023/10/23 05:34:36;;;;;;;4.25;2.20;;;;;;;6.93;100.00;98331.19;6104759;19;20030;-72
2023/10/23 05:36:36;;;;;;;10.25;2.53;;;;;;;6.91;100.00;98328.00;6106851;19;20066;-73
2023/10/23 05:38:38;;;;;;;3.03;1.95;;;;;;;6.91;100.00;98328.00;6105666;19;20095;-73
2023/10/23 05:40:38;;;;;;;5.20;3.30;;;;;;;6.88;100.00;98345.22;6107252;19;20002;-73
2023/10/23 05:42:40;;;;;;;4.47;2.70;;;;;;;6.79;100.00;98348.16;6106729;19;20044;-72
2023/10/23 05:44:40;;;;;;;5.88;3.38;;;;;;;6.71;100.00;98346.38;6106002;19;20166;-73
2023/10/23 05:46:40;;;;;;;7.78;3.30;;;;;;;6.72;100.00;98347.97;6106398;19;20026;-72
2023/10/23 05:48:41;;;;;;;7.82;3.20;;;;;;;6.73;100.00;98350.38;6106418;19;20324;-72
2023/10/23 05:50:41;;;;;;;11.80;4.20;;;;;;;6.70;100.00;98359.34;6106086;19;20020;-73
2023/10/23 05:52:41;;;;;;;10.52;4.13;;;;;;;6.65;100.00;98348.59;6105692;19;20031;-73
2023/10/23 05:54:42;;;;;;;4.78;3.25;;;;;;;6.64;100.00;98355.25;6105610;19;20360;-73
2023/10/23 05:56:46;;;;;;;13.93;4.20;;;;;;;6.57;100.00;98357.03;6105950;19;20024;-73
2023/10/23 05:58:47;;;;;;;10.20;3.60;;;;;;;6.57;100.00;98357.81;6106057;19;20538;-72
2023/10/23 06:00:47;;;;;;;22.63;3.88;;;;;;;6.47;100.00;98347.34;6104990;19;20542;-73
2023/10/23 06:02:48;;;;;;;15.35;4.70;;;;;;;6.44;100.00;98351.59;6103967;19;20023;-73
2023/10/23 06:04:51;;;;;;;11.20;4.10;;;;;;;6.43;100.00;98350.00;6102162;19;20308;-73
2023/10/23 06:06:51;;;;;;;5.72;3.30;;;;;;;6.42;100.00;98359.41;6103154;19;20010;-72
2023/10/23 06:08:52;;;;;;;7.10;3.80;;;;;;;6.37;100.00;98353.34;6102759;19;20298;-73
2023/10/23 06:10:53;;;;;;;5.47;3.30;;;;;;;6.31;100.00;98354.78;6102305;19;20649;-73
2023/10/23 06:12:53;;;;;;;5.65;3.22;;;;;;;6.28;100.00;98356.28;6102051;19;20030;-73
2023/10/23 06:14:54;;;;;;;10.82;4.20;;;;;;;6.26;100.00;98363.28;6095898;19;20477;-73
2023/10/23 06:16:54;;;;;;;8.25;3.47;;;;;;;6.22;100.00;98354.16;6102057;19;20080;-73
2023/10/23 06:18:54;;;;;;;5.57;3.83;;;;;;;6.18;100.00;98359.53;6102541;19;20007;-73
2023/10/23 06:21:01;;;;;;;6.72;3.70;;;;;;;6.17;100.00;98361.50;6101339;19;20026;-73
2023/10/23 06:23:03;;;;;;;4.18;2.40;;;;;;;6.15;100.00;98366.53;6103942;19;20264;-73
2023/10/23 06:25:04;;;;;;;3.92;2.83;;;;;;;6.15;100.00;98361.06;6105807;19;20010;-73
2023/10/23 06:27:04;;;;;;;6.15;3.22;;;;;;;6.17;100.00;98358.75;6106206;19;20483;-73
2023/10/23 06:29:04;;;;;;;7.30;4.72;;;;;;;6.17;100.00;98361.50;6105547;19;20007;-73
2023/10/23 06:31:10;;;;;;;10.98;4.03;;;;;;;6.14;100.00;98372.41;6105074;19;20035;-73
2023/10/23 06:33:10;;;;;;;6.28;4.47;;;;;;;6.11;100.00;98370.34;6103822;19;20337;-73
2023/10/23 06:35:11;;;;;;;7.55;3.42;;;;;;;6.16;100.00;98368.13;6105411;19;20022;-73
2023/10/23 06:37:11;;;;;;;7.00;3.10;;;;;;;6.22;100.00;98367.88;6108396;19;20017;-73
2023/10/23 06:39:12;;;;;;;4.15;3.72;;;;;;;6.26;100.00;98364.06;6111284;19;20014;-73
2023/10/23 06:41:13;;;;;;;5.43;4.00;;;;;;;6.25;100.00;98364.44;6109874;19;20103;-73
2023/10/23 06:43:13;;;;;;;4.65;3.70;;;;;;;6.25;100.00;98359.72;6109861;19;20015;-73
2023/10/23 06:45:14;;;;;;;5.18;3.75;;;;;;;6.23;100.00;98369.50;6110841;19;20100;-73
2023/10/23 06:47:15;;;;;;;3.30;2.70;;;;;;;6.26;100.00;98368.78;6111141;19;20035;-73
2023/10/23 06:49:16;;;;;;;3.20;2.40;;;;;;;6.32;100.00;98370.91;6098736;19;20018;-73
2023/10/23 06:51:16;;;;;;;4.85;3.03;;;;;;;6.40;100.00;98374.66;6109249;19;20530;-73
2023/10/23 06:53:17;;;;;;;15.13;3.17;;;;;;;6.40;100.00;98369.16;6108168;19;20014;-73
2023/10/23 06:55:18;;;;;;;6.95;2.53;;;;;;;6.41;100.00;98376.25;6111277;19;20034;-73
2023/10/23 06:57:18;;;;;;;3.72;2.63;;;;;;;6.45;100.00;98372.44;6110992;19;20479;-73
2023/10/23 06:59:18;;;;;;;4.97;2.90;;;;;;;6.47;100.00;98380.34;6110355;19;20469;-73
2023/10/23 07:01:19;;;;;;;4.78;2.30;;;;;;;6.46;100.00;98378.75;6109864;19;20023;-73
2023/10/23 07:03:19;;;;;;;6.63;2.67;;;;;;;6.53;100.00;98373.41;6108892;19;20003;-73
2023/10/23 07:05:20;;;;;;;4.85;2.33;;;;;;;6.55;100.00;98371.13;6110090;19;20015;-73
2023/10/23 07:07:20;;;;;;;10.77;3.10;;;;;;;6.61;100.00;98383.44;6107113;19;20019;-73
2023/10/23 07:09:21;;;;;;;4.15;2.75;;;;;;;6.61;100.00;98388.13;6111474;19;20331;-73
2023/10/23 07:11:22;;;;;;;5.25;2.47;;;;;;;6.58;100.00;98381.41;6109001;19;20066;-73
2023/10/23 07:13:23;;;;;;;5.35;2.47;;;;;;;6.64;100.00;98381.94;6110018;19;20458;-73
2023/10/23 07:15:23;;;;;;;4.60;2.13;;;;;;;6.68;100.00;98377.31;6108593;19;20070;-73
2023/10/23 07:17:23;;;;;;;8.05;2.17;;;;;;;6.75;100.00;98380.25;6110433;19;20015;-73
2023/10/23 07:19:23;;;;;;;10.57;3.05;;;;;;;6.81;100.00;98386.28;6110100;19;20017;-73
2023/10/23 07:21:25;;;;;;;6.65;2.53;;;;;;;6.82;100.00;98379.63;6110441;19;20509;-73
2023/10/23 07:23:26;;;;;;;3.03;1.95;;;;;;;6.85;100.00;98382.47;6109258;19;20014;-73
2023/10/23 07:25:26;;;;;;;5.15;2.90;;;;;;;6.86;100.00;98381.31;6110413;19;20036;-73
2023/10/23 07:27:28;;;;;;;8.07;2.42;;;;;;;6.90;100.00;98384.94;6108460;19;20010;-73
2023/10/23 07:29:29;;;;;;;3.72;2.10;;;;;;;6.93;100.00;98394.44;6110487;19;20006;-73
2023/10/23 07:31:30;;;;;;;4.17;2.20;;;;;;;7.00;100.00;98386.34;6109513;19;20010;-73
2023/10/23 07:33:30;;;;;;;3.70;2.25;;;;;;;7.04;100.00;98388.06;6109044;19;20254;-73
2023/10/23 07:35:31;;;;;;;4.28;2.20;;;;;;;7.10;100.00;98407.03;6110297;19;20006;-73
2023/10/23 07:37:32;;;;;;;3.03;2.22;;;;;;;7.13;100.00;98396.13;6107248;19;20329;-73
2023/10/23 07:39:33;;;;;;;4.82;2.30;;;;;;;7.18;100.00;98398.56;6109554;19;20021;-73
2023/10/23 07:41:33;;;;;;;2.67;2.05;;;;;;;7.26;100.00;98402.28;6109919;19;20010;-73
2023/10/23 07:43:34;;;;;;;6.63;2.33;;;;;;;7.30;100.00;98400.44;6108784;19;20007;-73
2023/10/23 07:45:38;;;;;;;3.20;2.10;;;;;;;7.37;100.00;98397.84;6108726;19;20017;-73
2023/10/23 07:47:39;;;;;;;2.72;1.85;;;;;;;7.43;100.00;98398.34;6107914;19;20462;-73
2023/10/23 07:49:39;;;;;;;5.80;2.15;;;;;;;7.48;100.00;98400.84;6101174;19;20252;-73
2023/10/23 07:51:39;;;;;;;8.63;2.83;;;;;;;7.53;100.00;98395.03;6101152;19;20005;-73
2023/10/23 07:53:40;;;;;;;5.60;3.33;;;;;;;7.59;100.00;98391.66;6101017;19;20103;-73
2023/10/23 07:55:40;;;;;;;4.22;2.72;;;;;;;7.67;100.00;98400.06;6101783;19;20342;-73
2023/10/23 07:57:41;;;;;;;7.32;2.97;;;;;;;7.75;100.00;98399.06;6101496;19;20103;-73
2023/10/23 07:59:41;;;;;;;6.05;2.33;;;;;;;7.76;100.00;98389.63;6101306;19;20058;-73
2023/10/23 08:01:41;;;;;;;6.22;2.95;;;;;;;7.85;100.00;98390.22;6101436;19;20029;-73
2023/10/23 08:03:42;;;;;;;8.35;3.50;;;;;;;7.89;100.00;98397.41;6100103;19;20099;-73
2023/10/23 08:05:42;;;;;;;4.82;2.97;;;;;;;7.98;100.00;98399.16;6101893;19;20007;-73
2023/10/23 08:07:43;;;;;;;6.65;3.03;;;;;;;8.08;100.00;98399.34;6101205;19;20100;-73
2023/10/23 08:09:43;;;;;;;9.25;4.22;;;;;;;8.16;100.00;98403.06;6101700;19;20322;-73
2023/10/23 08:11:44;;;;;;;6.30;3.10;;;;;;;8.20;100.00;98397.63;6101187;19;20023;-73
2023/10/23 08:13:45;;;;;;;4.20;3.20;;;;;;;8.25;100.00;98389.03;6100223;19;20448;-73
2023/10/23 08:15:45;;;;;;;3.90;3.33;;;;;;;8.30;100.00;98395.06;6101349;19;20006;-73
2023/10/23 08:17:45;;;;;;;6.28;3.47;;;;;;;8.35;100.00;98392.03;6101188;19;19999;-73
2023/10/23 08:19:46;;;;;;;6.82;3.50;;;;;;;8.39;100.00;98383.84;6101266;19;20247;-73
2023/10/23 08:21:46;;;;;;;6.50;3.72;;;;;;;8.42;100.00;98383.88;6100986;19;23486;-73
2023/10/23 08:23:52;;;;;;;5.07;3.00;;;;;;;8.50;100.00;98384.03;6099471;19;20013;-73
2023/10/23 08:25:52;;;;;;;5.30;3.20;;;;;;;8.55;100.00;98389.25;6101731;19;20368;-73
2023/10/23 08:27:53;;;;;;;6.93;4.15;;;;;;;8.59;100.00;98384.56;6101050;19;20006;-73
2023/10/23 08:29:53;;;;;;;8.77;3.63;;;;;;;8.67;100.00;98384.34;6100712;19;20009;-73
2023/10/23 08:31:54;;;;;;;6.72;3.38;;;;;;;8.75;100.00;98378.94;6100112;19;20002;-73
2023/10/23 08:33:54;;;;;;;8.60;3.45;;;;;;;8.78;100.00;98378.22;6099488;19;20094;-73
2023/10/23 08:35:54;;;;;;;6.18;3.53;;;;;;;8.85;100.00;98381.06;6100217;19;20461;-73
2023/10/23 08:37:55;;;;;;;7.72;3.65;;;;;;;8.91;100.00;98385.13;6100922;19;20324;-73
2023/10/23 08:39:55;;;;;;;7.30;3.25;;;;;;;8.98;100.00;98383.28;6100665;19;20010;-73
2023/10/23 08:41:57;;;;;;;8.52;3.25;;;;;;;9.04;100.00;98389.31;6099412;19;20009;-73
2023/10/23 08:43:57;;;;;;;8.10;3.50;;;;;;;9.09;100.00;98386.22;6099563;19;20039;-73
2023/10/23 08:46:00;;;;;;;7.57;3.22;;;;;;;9.16;100.00;98377.25;6101006;19;20003;-73
2023/10/23 08:48:01;;;;;;;6.45;2.65;;;;;;;9.22;100.00;98376.56;6097692;19;20720;-73
2023/10/23 08:50:03;;;;;;;5.50;3.13;;;;;;;9.37;100.00;98383.09;6107723;19;20445;-73
2023/10/23 08:52:09;;;;;;;7.75;3.08;;;;;;;9.46;100.00;98385.59;6108409;19;20323;-73
2023/10/23 08:54:18;;;;;;;5.75;3.10;;;;;;;9.52;100.00;98376.63;6108146;19;20333;-73
2023/10/23 08:56:19;;;;;;;3.28;2.78;;;;;;;9.60;100.00;98376.69;6107823;19;20005;-73
2023/10/23 08:58:21;;;;;;;5.32;2.50;;;;;;;9.66;100.00;98375.19;6107970;19;20482;-73
2023/10/23 09:00:22;;;;;;;3.10;2.60;;;;;;;9.76;100.00;98367.06;6105661;19;20447;-73
2023/10/23 09:02:23;;;;;;;6.90;3.20;;;;;;;9.85;100.00;98361.25;6106971;19;20006;-73
2023/10/23 09:04:23;;;;;;;4.97;2.88;;;;;;;9.90;100.00;98360.91;6106512;19;20018;-73
2023/10/23 09:06:23;;;;;;;6.20;3.95;;;;;;;9.98;100.00;98370.88;6107868;19;19998;-73
2023/10/23 09:08:27;;;;;;;3.40;2.42;;;;;;;10.05;100.00;98368.22;6107496;19;20463;-73
2023/10/23 09:10:27;;;;;;;3.33;2.75;;;;;;;10.15;100.00;98369.50;6108239;19;20074;-73
2023/10/23 09:12:32;;;;;;;6.03;2.25;;;;;;;10.24;100.00;98375.56;6106994;19;20010;-73
2023/10/23 09:14:32;;;;;;;4.88;2.05;;;;;;;10.26;100.00;98366.88;6108038;19;20006;-73
2023/10/23 09:16:33;;;;;;;6.68;2.30;;;;;;;10.32;100.00;98365.38;6107471;19;20003;-73
2023/10/23 09:18:34;;;;;;;4.55;2.08;;;;;;;10.41;100.00;98360.31;6108210;19;20018;-73
2023/10/23 09:20:34;;;;;;;4.00;2.15;;;;;;;10.44;100.00;98351.28;6107691;19;20031;-73
2023/10/23 09:22:35;;;;;;;5.50;2.13;;;;;;;10.53;100.00;98357.28;6107662;19;20479;-73
2023/10/23 09:24:36;;;;;;;3.47;2.10;;;;;;;10.60;100.00;98349.06;6106089;19;20230;-73
2023/10/23 09:26:37;;;;;;;4.95;2.40;;;;;;;10.69;100.00;98354.28;6107313;19;20058;-73